sensor_id;sensor_type;location;lat;lon;timestamp;pressure;altitude;pressure_sealevel;temperature;humidity
71970;BME280;59838;52.152;5.436;2023-11-21T00:01:03;101142.19;;;5.73;100.00
71970;BME280;59838;52.152;5.436;2023-11-21T00:03:31;101143.16;;;5.72;100.00
71970;BME280;59838;52.152;5.436;2023-11-21T00:05:57;101140.72;;;5.71;100.00
71970;BME280;59838;52.152;5.436;2023-11-21T00:08:24;101147.47;;;5.72;100.00
71970;BME280;59838;52.152;5.436;2023-11-21T00:10:50;101147.34;;;5.73;100.00
71970;BME280;59838;52.152;5.436;2023-11-21T00:13:17;101159.44;;;5.73;100.00
71970;BME280;59838;52.152;5.436;2023-11-21T00:15:44;101155.22;;;5.72;100.00
71970;BME280;59838;52.152;5.436;2023-11-21T00:18:10;101151.84;;;5.71;100.00
71970;BME280;59838;52.152;5.436;2023-11-21T00:20:37;101154.41;;;5.71;100.00
71970;BME280;59838;52.152;5.436;2023-11-21T00:23:03;101158.63;;;5.72;100.00
71970;BME280;59838;52.152;5.436;2023-11-21T00:25:30;101156.84;;;5.73;100.00
71970;BME280;59838;52.152;5.436;2023-11-21T00:27:57;101163.91;;;5.71;100.00
71970;BME280;59838;52.152;5.436;2023-11-21T00:30:24;101163.91;;;5.71;100.00
71970;BME280;59838;52.152;5.436;2023-11-21T00:32:51;101171.00;;;5.68;100.00
71970;BME280;59838;52.152;5.436;2023-11-21T00:35:17;101171.78;;;5.69;100.00
71970;BME280;59838;52.152;5.436;2023-11-21T00:37:44;101166.13;;;5.65;100.00
71970;BME280;59838;52.152;5.436;2023-11-21T00:40:12;101163.69;;;5.64;100.00
71970;BME280;59838;52.152;5.436;2023-11-21T00:42:38;101163.81;;;5.62;100.00
71970;BME280;59838;52.152;5.436;2023-11-21T00:45:06;101170.88;;;5.60;100.00
71970;BME280;59838;52.152;5.436;2023-11-21T00:47:33;101165.72;;;5.60;100.00
71970;BME280;59838;52.152;5.436;2023-11-21T00:49:59;101167.63;;;5.58;100.00
71970;BME280;59838;52.152;5.436;2023-11-21T00:52:26;101171.16;;;5.57;100.00
71970;BME280;59838;52.152;5.436;2023-11-21T00:54:52;101174.69;;;5.56;100.00
71970;BME280;59838;52.152;5.436;2023-11-21T00:57:19;101174.97;;;5.53;100.00
71970;BME280;59838;52.152;5.436;2023-11-21T00:59:46;101174.16;;;5.53;100.00
71970;BME280;59838;52.152;5.436;2023-11-21T01:02:12;101173.34;;;5.52;100.00
71970;BME280;59838;52.152;5.436;2023-11-21T01:04:39;101191.38;;;5.52;100.00
71970;BME280;59838;52.152;5.436;2023-11-21T01:07:05;101192.34;;;5.51;100.00
71970;BME280;59838;52.152;5.436;2023-11-21T01:09:32;101196.53;;;5.52;100.00
71970;BME280;59838;52.152;5.436;2023-11-21T01:11:58;101198.16;;;5.53;100.00
71970;BME280;59838;52.152;5.436;2023-11-21T01:14:26;101201.53;;;5.54;100.00
71970;BME280;59838;52.152;5.436;2023-11-21T01:16:53;101201.28;;;5.57;100.00
71970;BME280;59838;52.152;5.436;2023-11-21T01:19:20;101202.75;;;5.59;100.00
71970;BME280;59838;52.152;5.436;2023-11-21T01:21:46;101205.06;;;5.62;100.00
71970;BME280;59838;52.152;5.436;2023-11-21T01:24:13;101196.22;;;5.65;100.00
71970;BME280;59838;52.152;5.436;2023-11-21T01:26:39;101201.22;;;5.66;100.00
71970;BME280;59838;52.152;5.436;2023-11-21T01:29:06;101196.78;;;5.68;100.00
71970;BME280;59838;52.152;5.436;2023-11-21T01:31:33;101201.94;;;5.68;100.00
71970;BME280;59838;52.152;5.436;2023-11-21T01:33:59;101195.81;;;5.70;100.00
71970;BME280;59838;52.152;5.436;2023-11-21T01:36:32;101203.25;;;5.73;100.00
71970;BME280;59838;52.152;5.436;2023-11-21T01:38:59;101207.34;;;5.75;100.00
71970;BME280;59838;52.152;5.436;2023-11-21T01:41:27;101213.16;;;5.77;100.00
71970;BME280;59838;52.152;5.436;2023-11-21T01:43:55;101204.47;;;5.78;100.00
71970;BME280;59838;52.152;5.436;2023-11-21T01:46:22;101212.88;;;5.80;100.00
71970;BME280;59838;52.152;5.436;2023-11-21T01:48:49;101208.50;;;5.81;100.00
71970;BME280;59838;52.152;5.436;2023-11-21T01:51:16;101218.69;;;5.82;100.00
71970;BME280;59838;52.152;5.436;2023-11-21T01:53:44;101222.06;;;5.83;100.00
71970;BME280;59838;52.152;5.436;2023-11-21T01:56:11;101213.38;;;5.84;100.00
71970;BME280;59838;52.152;5.436;2023-11-21T01:58:39;101220.84;;;5.87;100.00
71970;BME280;59838;52.152;5.436;2023-11-21T02:01:06;101220.56;;;5.90;100.00
71970;BME280;59838;52.152;5.436;2023-11-21T02:03:33;101221.38;;;5.91;100.00
71970;BME280;59838;52.152;5.436;2023-11-21T02:05:59;101222.03;;;5.93;100.00
71970;BME280;59838;52.152;5.436;2023-11-21T02:08:26;101234.66;;;5.96;100.00
71970;BME280;59838;52.152;5.436;2023-11-21T02:10:53;101247.28;;;5.99;100.00
71970;BME280;59838;52.152;5.436;2023-11-21T02:13:19;101238.47;;;6.01;100.00
71970;BME280;59838;52.152;5.436;2023-11-21T02:15:46;101248.50;;;6.04;100.00
71970;BME280;59838;52.152;5.436;2023-11-21T02:18:13;101251.59;;;6.08;100.00
71970;BME280;59838;52.152;5.436;2023-11-21T02:20:41;101247.09;;;6.10;100.00
71970;BME280;59838;52.152;5.436;2023-11-21T02:23:09;101253.75;;;6.13;100.00
71970;BME280;59838;52.152;5.436;2023-11-21T02:25:35;101247.34;;;6.17;100.00
71970;BME280;59838;52.152;5.436;2023-11-21T02:28:04;101247.19;;;6.18;100.00
71970;BME280;59838;52.152;5.436;2023-11-21T02:30:31;101253.84;;;6.21;100.00
71970;BME280;59838;52.152;5.436;2023-11-21T02:32:59;101257.75;;;6.25;100.00
71970;BME280;59838;52.152;5.436;2023-11-21T02:35:26;101251.50;;;6.28;100.00
71970;BME280;59838;52.152;5.436;2023-11-21T02:37:53;101259.78;;;6.31;100.00
71970;BME280;59838;52.152;5.436;2023-11-21T02:40:20;101260.47;;;6.33;100.00
71970;BME280;59838;52.152;5.436;2023-11-21T02:42:47;101264.50;;;6.36;100.00
71970;BME280;59838;52.152;5.436;2023-11-21T02:45:14;101261.91;;;6.36;100.00
71970;BME280;59838;52.152;5.436;2023-11-21T02:47:44;101259.84;;;6.39;100.00
71970;BME280;59838;52.152;5.436;2023-11-21T02:50:11;101260.56;;;6.42;100.00
71970;BME280;59838;52.152;5.436;2023-11-21T02:52:38;101262.81;;;6.45;100.00
71970;BME280;59838;52.152;5.436;2023-11-21T02:55:06;101261.88;;;6.46;100.00
71970;BME280;59838;52.152;5.436;2023-11-21T02:57:35;101259.94;;;6.48;100.00
71970;BME280;59838;52.152;5.436;2023-11-21T03:00:02;101264.81;;;6.51;100.00
71970;BME280;59838;52.152;5.436;2023-11-21T03:02:29;101250.16;;;6.51;100.00
71970;BME280;59838;52.152;5.436;2023-11-21T03:04:56;101256.00;;;6.53;100.00
71970;BME280;59838;52.152;5.436;2023-11-21T03:07:22;101256.66;;;6.55;100.00
71970;BME280;59838;52.152;5.436;2023-11-21T03:09:49;101257.31;;;6.57;100.00
71970;BME280;59838;52.152;5.436;2023-11-21T03:12:15;101259.75;;;6.59;100.00
71970;BME280;59838;52.152;5.436;2023-11-21T03:14:42;101263.81;;;6.62;100.00
71970;BME280;59838;52.152;5.436;2023-11-21T03:17:08;101260.16;;;6.64;100.00
71970;BME280;59838;52.152;5.436;2023-11-21T03:19:35;101259.16;;;6.65;100.00
71970;BME280;59838;52.152;5.436;2023-11-21T03:22:01;101263.25;;;6.68;100.00
71970;BME280;59838;52.152;5.436;2023-11-21T03:24:28;101259.69;;;6.69;100.00
71970;BME280;59838;52.152;5.436;2023-11-21T03:27:28;101258.88;;;6.68;100.00
71970;BME280;59838;52.152;5.436;2023-11-21T03:29:54;101251.94;;;6.69;100.00
71970;BME280;59838;52.152;5.436;2023-11-21T03:32:22;101250.47;;;6.66;100.00
71970;BME280;59838;52.152;5.436;2023-11-21T03:34:56;101260.94;;;6.65;100.00
71970;BME280;59838;52.152;5.436;2023-11-21T03:37:24;101259.16;;;6.65;100.00
71970;BME280;59838;52.152;5.436;2023-11-21T03:39:51;101265.16;;;6.66;100.00
71970;BME280;59838;52.152;5.436;2023-11-21T03:42:18;101274.38;;;6.68;100.00
71970;BME280;59838;52.152;5.436;2023-11-21T03:44:44;101275.72;;;6.72;100.00
71970;BME280;59838;52.152;5.436;2023-11-21T03:47:11;101272.00;;;6.75;100.00
71970;BME280;59838;52.152;5.436;2023-11-21T03:49:37;101273.50;;;6.77;100.00
71970;BME280;59838;52.152;5.436;2023-11-21T03:52:05;101278.53;;;6.79;100.00
71970;BME280;59838;52.152;5.436;2023-11-21T03:54:32;101286.94;;;6.81;100.00
71970;BME280;59838;52.152;5.436;2023-11-21T03:56:58;101291.94;;;6.83;100.00
71970;BME280;59838;52.152;5.436;2023-11-21T03:59:25;101290.03;;;6.85;100.00
71970;BME280;59838;52.152;5.436;2023-11-21T04:01:51;101290.72;;;6.87;100.00
71970;BME280;59838;52.152;5.436;2023-11-21T04:04:18;101295.56;;;6.90;100.00
71970;BME280;59838;52.152;5.436;2023-11-21T04:06:44;101295.41;;;6.91;100.00
71970;BME280;59838;52.152;5.436;2023-11-21T04:09:11;101292.69;;;6.93;100.00
71970;BME280;59838;52.152;5.436;2023-11-21T04:11:38;101304.50;;;6.95;100.00
71970;BME280;59838;52.152;5.436;2023-11-21T04:14:05;101306.94;;;6.97;100.00
71970;BME280;59838;52.152;5.436;2023-11-21T04:16:32;101307.59;;;6.99;100.00
71970;BME280;59838;52.152;5.436;2023-11-21T04:18:59;101310.03;;;7.01;100.00
71970;BME280;59838;52.152;5.436;2023-11-21T04:21:26;101316.84;;;7.02;100.00
71970;BME280;59838;52.152;5.436;2023-11-21T04:23:53;101319.28;;;7.03;100.00
71970;BME280;59838;52.152;5.436;2023-11-21T04:26:19;101316.53;;;7.05;100.00
71970;BME280;59838;52.152;5.436;2023-11-21T04:28:46;101322.38;;;7.07;100.00
71970;BME280;59838;52.152;5.436;2023-11-21T04:31:12;101322.22;;;7.08;100.00
71970;BME280;59838;52.152;5.436;2023-11-21T04:33:38;101327.25;;;7.10;100.00
71970;BME280;59838;52.152;5.436;2023-11-21T04:36:05;101333.88;;;7.12;100.00
71970;BME280;59838;52.152;5.436;2023-11-21T04:38:32;101339.88;;;7.13;100.00
71970;BME280;59838;52.152;5.436;2023-11-21T04:40:59;101340.53;;;7.15;100.00
71970;BME280;59838;52.152;5.436;2023-11-21T04:43:28;101346.34;;;7.17;100.00
71970;BME280;59838;52.152;5.436;2023-11-21T04:45:55;101347.03;;;7.19;100.00
71970;BME280;59838;52.152;5.436;2023-11-21T04:48:22;101343.47;;;7.20;100.00
71970;BME280;59838;52.152;5.436;2023-11-21T04:50:48;101347.69;;;7.21;100.00
71970;BME280;59838;52.152;5.436;2023-11-21T04:53:14;101339.81;;;7.23;100.00
71970;BME280;59838;52.152;5.436;2023-11-21T04:55:41;101345.63;;;7.25;100.00
71970;BME280;59838;52.152;5.436;2023-11-21T04:58:08;101350.66;;;7.26;100.00
71970;BME280;59838;52.152;5.436;2023-11-21T05:00:34;101351.31;;;7.28;100.00
71970;BME280;59838;52.152;5.436;2023-11-21T05:03:03;101351.16;;;7.30;100.00
71970;BME280;59838;52.152;5.436;2023-11-21T05:05:30;101352.66;;;7.32;100.00
71970;BME280;59838;52.152;5.436;2023-11-21T05:07:57;101348.28;;;7.33;100.00
71970;BME280;59838;52.152;5.436;2023-11-21T05:10:23;101358.19;;;7.38;100.00
71970;BME280;59838;52.152;5.436;2023-11-21T05:12:50;101359.66;;;7.40;100.00
71970;BME280;59838;52.152;5.436;2023-11-21T05:15:16;101361.13;;;7.43;100.00
71970;BME280;59838;52.152;5.436;2023-11-21T05:17:47;101373.91;;;7.44;100.00
71970;BME280;59838;52.152;5.436;2023-11-21T05:20:16;101368.44;;;7.47;100.00
71970;BME280;59838;52.152;5.436;2023-11-21T05:22:49;101375.25;;;7.48;100.00
71970;BME280;59838;52.152;5.436;2023-11-21T05:25:16;101379.28;;;7.51;100.00
71970;BME280;59838;52.152;5.436;2023-11-21T05:27:46;101377.38;;;7.53;100.00
71970;BME280;59838;52.152;5.436;2023-11-21T05:30:13;101372.72;;;7.57;100.00
71970;BME280;59838;52.152;5.436;2023-11-21T05:32:41;101377.75;;;7.58;100.00
71970;BME280;59838;52.152;5.436;2023-11-21T05:35:10;101375.97;;;7.59;100.00
71970;BME280;59838;52.152;5.436;2023-11-21T05:37:42;101389.41;;;7.62;100.00
71970;BME280;59838;52.152;5.436;2023-11-21T05:40:09;101384.88;;;7.64;100.00
71970;BME280;59838;52.152;5.436;2023-11-21T05:42:36;101388.00;;;7.68;100.00
71970;BME280;59838;52.152;5.436;2023-11-21T05:45:04;101396.56;;;7.68;100.00
71970;BME280;59838;52.152;5.436;2023-11-21T05:47:43;101396.44;;;7.70;100.00
71970;BME280;59838;52.152;5.436;2023-11-21T05:50:11;101392.88;;;7.71;100.00
71970;BME280;59838;52.152;5.436;2023-11-21T05:52:42;101403.59;;;7.76;100.00
71970;BME280;59838;52.152;5.436;2023-11-21T05:55:10;101408.63;;;7.78;100.00
71970;BME280;59838;52.152;5.436;2023-11-21T05:57:39;101404.91;;;7.80;100.00
71970;BME280;59838;52.152;5.436;2023-11-21T06:00:07;101411.72;;;7.81;100.00
71970;BME280;59838;52.152;5.436;2023-11-21T06:03:00;101407.03;;;7.85;100.00
71970;BME280;59838;52.152;5.436;2023-11-21T06:05:26;101411.91;;;7.88;100.00
71970;BME280;59838;52.152;5.436;2023-11-21T06:07:54;101415.00;;;7.92;100.00
71970;BME280;59838;52.152;5.436;2023-11-21T06:10:22;101422.31;;;7.96;100.00
71970;BME280;59838;52.152;5.436;2023-11-21T06:12:51;101432.53;;;7.98;100.00
71970;BME280;59838;52.152;5.436;2023-11-21T06:15:17;101425.41;;;8.00;100.00
71970;BME280;59838;52.152;5.436;2023-11-21T06:17:46;101435.31;;;8.04;100.00
71970;BME280;59838;52.152;5.436;2023-11-21T06:20:15;101433.56;;;8.05;100.00
71970;BME280;59838;52.152;5.436;2023-11-21T06:22:47;101435.03;;;8.08;100.00
71970;BME280;59838;52.152;5.436;2023-11-21T06:25:14;101446.03;;;8.10;100.00
71970;BME280;59838;52.152;5.436;2023-11-21T06:27:48;101440.84;;;8.10;100.00
71970;BME280;59838;52.152;5.436;2023-11-21T06:30:15;101449.97;;;8.14;100.00
71970;BME280;59838;52.152;5.436;2023-11-21T06:32:42;101449.50;;;8.18;100.00
71970;BME280;59838;52.152;5.436;2023-11-21T06:35:13;101449.50;;;8.18;100.00
71970;BME280;59838;52.152;5.436;2023-11-21T06:37:42;101446.63;;;8.21;100.00
71970;BME280;59838;52.152;5.436;2023-11-21T06:40:14;101450.81;;;8.22;100.00
71970;BME280;59838;52.152;5.436;2023-11-21T06:42:41;101456.66;;;8.24;100.00
71970;BME280;59838;52.152;5.436;2023-11-21T06:45:08;101458.28;;;8.26;100.00
71970;BME280;59838;52.152;5.436;2023-11-21T06:47:37;101458.13;;;8.27;100.00
71970;BME280;59838;52.152;5.436;2023-11-21T06:50:05;101460.56;;;8.29;100.00
71970;BME280;59838;52.152;5.436;2023-11-21T06:52:33;101468.03;;;8.32;100.00
71970;BME280;59838;52.152;5.436;2023-11-21T06:54:59;101469.66;;;8.33;100.00
71970;BME280;59838;52.152;5.436;2023-11-21T06:57:26;101468.69;;;8.34;100.00
71970;BME280;59838;52.152;5.436;2023-11-21T06:59:52;101465.78;;;8.37;100.00
71970;BME280;59838;52.152;5.436;2023-11-21T07:02:19;101479.38;;;8.39;100.00
71970;BME280;59838;52.152;5.436;2023-11-21T07:04:46;101482.66;;;8.41;100.00
71970;BME280;59838;52.152;5.436;2023-11-21T07:07:12;101490.97;;;8.45;100.00
71970;BME280;59838;52.152;5.436;2023-11-21T07:09:39;101492.59;;;8.46;100.00
71970;BME280;59838;52.152;5.436;2023-11-21T07:12:06;101495.03;;;8.47;100.00
71970;BME280;59838;52.152;5.436;2023-11-21T07:14:34;101505.06;;;8.50;100.00
71970;BME280;59838;52.152;5.436;2023-11-21T07:17:01;101503.31;;;8.51;100.00
71970;BME280;59838;52.152;5.436;2023-11-21T07:19:27;101502.19;;;8.53;100.00
71970;BME280;59838;52.152;5.436;2023-11-21T07:21:54;101509.50;;;8.58;100.00
71970;BME280;59838;52.152;5.436;2023-11-21T07:24:21;101513.56;;;8.60;100.00
71970;BME280;59838;52.152;5.436;2023-11-21T07:26:52;101516.00;;;8.62;100.00
71970;BME280;59838;52.152;5.436;2023-11-21T07:29:23;101522.63;;;8.65;100.00
71970;BME280;59838;52.152;5.436;2023-11-21T07:31:52;101528.66;;;8.65;100.00
71970;BME280;59838;52.152;5.436;2023-11-21T07:34:20;101524.94;;;8.68;100.00
71970;BME280;59838;52.152;5.436;2023-11-21T07:36:47;101523.03;;;8.70;100.00
71970;BME280;59838;52.152;5.436;2023-11-21T07:39:13;101527.22;;;8.71;100.00
71970;BME280;59838;52.152;5.436;2023-11-21T07:41:42;101524.31;;;8.74;100.00
71970;BME280;59838;52.152;5.436;2023-11-21T07:44:16;101531.13;;;8.75;100.00
71970;BME280;59838;52.152;5.436;2023-11-21T07:46:47;101538.75;;;8.76;100.00
71970;BME280;59838;52.152;5.436;2023-11-21T07:49:14;101533.44;;;8.78;100.00
71970;BME280;59838;52.152;5.436;2023-11-21T07:51:46;101536.66;;;8.80;100.00
71970;BME280;59838;52.152;5.436;2023-11-21T07:54:13;101544.94;;;8.84;100.00
71970;BME280;59838;52.152;5.436;2023-11-21T07:56:39;101546.44;;;8.86;100.00
71970;BME280;59838;52.152;5.436;2023-11-21T07:59:06;101552.25;;;8.88;100.00
71970;BME280;59838;52.152;5.436;2023-11-21T08:01:32;101560.53;;;8.92;100.00
71970;BME280;59838;52.152;5.436;2023-11-21T08:03:59;101565.25;;;8.96;100.00
71970;BME280;59838;52.152;5.436;2023-11-21T08:06:30;101565.31;;;9.05;100.00
71970;BME280;59838;52.152;5.436;2023-11-21T08:08:57;101576.69;;;9.12;100.00
71970;BME280;59838;52.152;5.436;2023-11-21T08:11:23;101578.00;;;9.16;100.00
71970;BME280;59838;52.152;5.436;2023-11-21T08:13:50;101585.47;;;9.19;100.00
71970;BME280;59838;52.152;5.436;2023-11-21T08:16:16;101588.56;;;9.23;100.00
71970;BME280;59838;52.152;5.436;2023-11-21T08:18:43;101594.91;;;9.28;100.00
71970;BME280;59838;52.152;5.436;2023-11-21T08:21:12;101604.69;;;9.35;100.00
71970;BME280;59838;52.152;5.436;2023-11-21T08:23:39;101605.19;;;9.38;100.00
71970;BME280;59838;52.152;5.436;2023-11-21T08:26:05;101610.06;;;9.41;100.00
71970;BME280;59838;52.152;5.436;2023-11-21T08:28:32;101612.50;;;9.43;100.00
71970;BME280;59838;52.152;5.436;2023-11-21T08:31:00;101623.81;;;9.42;100.00
71970;BME280;59838;52.152;5.436;2023-11-21T08:33:27;101625.47;;;9.43;100.00
71970;BME280;59838;52.152;5.436;2023-11-21T08:35:54;101635.00;;;9.42;100.00
71970;BME280;59838;52.152;5.436;2023-11-21T08:38:20;101640.19;;;9.42;100.00
71970;BME280;59838;52.152;5.436;2023-11-21T08:40:47;101642.63;;;9.44;100.00
71970;BME280;59838;52.152;5.436;2023-11-21T08:43:13;101646.69;;;9.46;100.00
71970;BME280;59838;52.152;5.436;2023-11-21T08:45:41;101650.75;;;9.49;100.00
71970;BME280;59838;52.152;5.436;2023-11-21T08:48:07;101655.78;;;9.50;100.00
71970;BME280;59838;52.152;5.436;2023-11-21T08:50:34;101658.22;;;9.52;100.00
71970;BME280;59838;52.152;5.436;2023-11-21T08:53:01;101660.66;;;9.54;100.00
71970;BME280;59838;52.152;5.436;2023-11-21T08:55:27;101658.91;;;9.54;100.00
71970;BME280;59838;52.152;5.436;2023-11-21T08:57:55;101661.34;;;9.56;100.00
71970;BME280;59838;52.152;5.436;2023-11-21T09:00:24;101656.66;;;9.59;100.00
71970;BME280;59838;52.152;5.436;2023-11-21T09:02:50;101656.69;;;9.67;100.00
71970;BME280;59838;52.152;5.436;2023-11-21T09:05:17;101665.16;;;9.78;100.00
71970;BME280;59838;52.152;5.436;2023-11-21T09:07:45;101673.78;;;9.86;100.00
71970;BME280;59838;52.152;5.436;2023-11-21T09:10:13;101682.06;;;9.90;100.00
71970;BME280;59838;52.152;5.436;2023-11-21T09:12:39;101689.88;;;9.90;100.00
71970;BME280;59838;52.152;5.436;2023-11-21T09:15:07;101692.31;;;9.92;100.00
71970;BME280;59838;52.152;5.436;2023-11-21T09:17:34;101702.84;;;9.90;100.00
71970;BME280;59838;52.152;5.436;2023-11-21T09:20:01;101705.09;;;9.85;100.00
71970;BME280;59838;52.152;5.436;2023-11-21T09:22:30;101698.56;;;9.81;100.00
71970;BME280;59838;52.152;5.436;2023-11-21T09:24:58;101703.28;;;9.77;100.00
71970;BME280;59838;52.152;5.436;2023-11-21T09:27:24;101717.06;;;9.78;100.00
71970;BME280;59838;52.152;5.436;2023-11-21T09:29:52;101707.47;;;9.78;100.00
71970;BME280;59838;52.152;5.436;2023-11-21T09:32:20;101714.47;;;9.78;100.00
71970;BME280;59838;52.152;5.436;2023-11-21T09:34:50;101721.44;;;9.77;100.00
71970;BME280;59838;52.152;5.436;2023-11-21T09:37:17;101731.16;;;9.75;100.00
71970;BME280;59838;52.152;5.436;2023-11-21T09:39:45;101723.84;;;9.70;100.00
71970;BME280;59838;52.152;5.436;2023-11-21T09:42:25;101735.47;;;9.66;100.00
71970;BME280;59838;52.152;5.436;2023-11-21T09:47:37;101749.84;;;9.52;100.00
71970;BME280;59838;52.152;5.436;2023-11-21T09:50:05;101759.69;;;9.49;100.00
71970;BME280;59838;52.152;5.436;2023-11-21T09:52:44;101765.56;;;9.51;100.00
71970;BME280;59838;52.152;5.436;2023-11-21T09:55:17;101762.81;;;9.52;100.00
71970;BME280;59838;52.152;5.436;2023-11-21T09:57:47;101764.28;;;9.55;100.00
71970;BME280;59838;52.152;5.436;2023-11-21T10:00:18;101772.72;;;9.57;100.00
71970;BME280;59838;52.152;5.436;2023-11-21T10:02:47;101770.44;;;9.54;100.00
71970;BME280;59838;52.152;5.436;2023-11-21T10:05:14;101769.13;;;9.50;100.00
71970;BME280;59838;52.152;5.436;2023-11-21T10:07:43;101779.66;;;9.48;100.00
71970;BME280;59838;52.152;5.436;2023-11-21T10:10:11;101771.34;;;9.45;100.00
71970;BME280;59838;52.152;5.436;2023-11-21T10:12:38;101776.69;;;9.43;100.00
71970;BME280;59838;52.152;5.436;2023-11-21T10:15:08;101786.91;;;9.45;100.00
71970;BME280;59838;52.152;5.436;2023-11-21T10:17:38;101788.72;;;9.44;100.00
71970;BME280;59838;52.152;5.436;2023-11-21T10:20:11;101797.00;;;9.48;100.00
71970;BME280;59838;52.152;5.436;2023-11-21T10:22:43;101802.69;;;9.51;100.00
71970;BME280;59838;52.152;5.436;2023-11-21T10:25:10;101800.16;;;9.60;100.00
71970;BME280;59838;52.152;5.436;2023-11-21T10:27:37;101810.72;;;9.66;100.00
71970;BME280;59838;52.152;5.436;2023-11-21T10:30:07;101817.72;;;9.66;100.00
71970;BME280;59838;52.152;5.436;2023-11-21T10:32:41;101818.00;;;9.63;100.00
71970;BME280;59838;52.152;5.436;2023-11-21T10:35:10;101813.56;;;9.55;100.00
71970;BME280;59838;52.152;5.436;2023-11-21T10:37:37;101821.28;;;9.47;100.00
71970;BME280;59838;52.152;5.436;2023-11-21T10:40:08;101828.56;;;9.43;100.00
71970;BME280;59838;52.152;5.436;2023-11-21T10:42:39;101838.13;;;9.43;100.00
71970;BME280;59838;52.152;5.436;2023-11-21T10:45:07;101849.47;;;9.42;100.00
71970;BME280;59838;52.152;5.436;2023-11-21T10:47:42;101855.75;;;9.39;100.00
71970;BME280;59838;52.152;5.436;2023-11-21T10:50:09;101856.88;;;9.37;100.00
71970;BME280;59838;52.152;5.436;2023-11-21T10:52:39;101868.88;;;9.38;100.00
71970;BME280;59838;52.152;5.436;2023-11-21T10:55:21;101870.66;;;9.37;100.00
71970;BME280;59838;52.152;5.436;2023-11-21T10:57:52;101874.19;;;9.36;100.00
71970;BME280;59838;52.152;5.436;2023-11-21T11:00:20;101869.34;;;9.33;100.00
71970;BME280;59838;52.152;5.436;2023-11-21T11:02:51;101879.56;;;9.35;100.00
71970;BME280;59838;52.152;5.436;2023-11-21T11:05:20;101878.59;;;9.36;100.00
71970;BME280;59838;52.152;5.436;2023-11-21T11:07:48;101878.16;;;9.40;100.00
71970;BME280;59838;52.152;5.436;2023-11-21T11:10:21;101878.81;;;9.42;100.00
71970;BME280;59838;52.152;5.436;2023-11-21T11:12:49;101870.06;;;9.43;100.00
71970;BME280;59838;52.152;5.436;2023-11-21T11:15:16;101874.44;;;9.43;100.00
71970;BME280;59838;52.152;5.436;2023-11-21T11:17:43;101870.22;;;9.42;100.00
71970;BME280;59838;52.152;5.436;2023-11-21T11:20:13;101872.97;;;9.40;100.00
71970;BME280;59838;52.152;5.436;2023-11-21T11:25:30;101881.84;;;9.38;100.00
71970;BME280;59838;52.152;5.436;2023-11-21T11:28:08;101885.41;;;9.37;100.00
71970;BME280;59838;52.152;5.436;2023-11-21T11:33:43;101890.53;;;9.46;100.00
71970;BME280;59838;52.152;5.436;2023-11-21T11:36:22;101892.22;;;9.56;100.00
71970;BME280;59838;52.152;5.436;2023-11-21T11:38:51;101890.28;;;9.58;100.00
71970;BME280;59838;52.152;5.436;2023-11-21T11:41:26;101889.47;;;9.57;100.00
71970;BME280;59838;52.152;5.436;2023-11-21T11:43:53;101896.59;;;9.55;100.00
71970;BME280;59838;52.152;5.436;2023-11-21T11:46:20;101897.56;;;9.54;100.00
71970;BME280;59838;52.152;5.436;2023-11-21T11:48:48;101899.19;;;9.55;100.00
71970;BME280;59838;52.152;5.436;2023-11-21T11:51:29;101906.00;;;9.56;100.00
71970;BME280;59838;52.152;5.436;2023-11-21T11:53:57;101898.88;;;9.58;100.00
71970;BME280;59838;52.152;5.436;2023-11-21T11:56:30;101903.25;;;9.58;100.00
71970;BME280;59838;52.152;5.436;2023-11-21T11:59:01;101913.94;;;9.55;100.00
71970;BME280;59838;52.152;5.436;2023-11-21T12:01:31;101917.78;;;9.50;100.00
71970;BME280;59838;52.152;5.436;2023-11-21T12:07:01;101920.38;;;9.50;100.00
71970;BME280;59838;52.152;5.436;2023-11-21T12:09:30;101937.06;;;9.48;100.00
71970;BME280;59838;52.152;5.436;2023-11-21T12:11:58;101940.63;;;9.47;100.00
71970;BME280;59838;52.152;5.436;2023-11-21T12:14:24;101939.66;;;9.48;100.00
71970;BME280;59838;52.152;5.436;2023-11-21T12:16:51;101933.13;;;9.44;100.00
71970;BME280;59838;52.152;5.436;2023-11-21T12:19:19;101947.38;;;9.40;100.00
71970;BME280;59838;52.152;5.436;2023-11-21T12:21:47;101944.06;;;9.38;100.00
71970;BME280;59838;52.152;5.436;2023-11-21T12:24:15;101950.25;;;9.37;100.00
71970;BME280;59838;52.152;5.436;2023-11-21T12:26:43;101937.13;;;9.38;100.00
71970;BME280;59838;52.152;5.436;2023-11-21T12:29:10;101942.97;;;9.40;100.00
71970;BME280;59838;52.152;5.436;2023-11-21T12:31:37;101950.09;;;9.38;100.00
71970;BME280;59838;52.152;5.436;2023-11-21T12:34:04;101948.47;;;9.37;100.00
71970;BME280;59838;52.152;5.436;2023-11-21T12:36:34;101946.66;;;9.38;100.00
71970;BME280;59838;52.152;5.436;2023-11-21T12:39:02;101949.13;;;9.39;100.00
71970;BME280;59838;52.152;5.436;2023-11-21T12:41:29;101950.25;;;9.37;100.00
71970;BME280;59838;52.152;5.436;2023-11-21T12:43:57;101951.34;;;9.34;100.00
71970;BME280;59838;52.152;5.436;2023-11-21T12:46:23;101955.72;;;9.33;100.00
71970;BME280;59838;52.152;5.436;2023-11-21T12:48:53;101965.28;;;9.33;100.00
71970;BME280;59838;52.152;5.436;2023-11-21T12:51:21;101960.78;;;9.35;100.00
71970;BME280;59838;52.152;5.436;2023-11-21T12:53:48;101968.69;;;9.33;100.00
71970;BME280;59838;52.152;5.436;2023-11-21T12:56:15;101975.53;;;9.35;100.00
71970;BME280;59838;52.152;5.436;2023-11-21T12:58:46;101977.28;;;9.34;100.00
71970;BME280;59838;52.152;5.436;2023-11-21T13:01:18;101980.09;;;9.41;100.00
71970;BME280;59838;52.152;5.436;2023-11-21T13:03:50;101978.72;;;9.46;100.00
71970;BME280;59838;52.152;5.436;2023-11-21T13:06:18;101984.13;;;9.53;100.00